sensor_id;sensor_type;location;lat;lon;timestamp;pressure;altitude;pressure_sealevel;temperature;humidity
7930;BME280;4010;42.698;23.124;2024-02-04T00:01:59;118349.16;;;-140.64;74.95
7930;BME280;4010;42.698;23.124;2024-02-04T00:04:27;118349.16;;;-140.64;74.90
7930;BME280;4010;42.698;23.124;2024-02-04T00:06:54;118349.16;;;-140.64;74.43
7930;BME280;4010;42.698;23.124;2024-02-04T00:09:22;118349.16;;;-140.64;74.79
7930;BME280;4010;42.698;23.124;2024-02-04T00:11:49;118349.16;;;-140.64;75.13
7930;BME280;4010;42.698;23.124;2024-02-04T00:14:16;118349.16;;;-140.64;74.82
7930;BME280;4010;42.698;23.124;2024-02-04T00:16:43;118349.16;;;-140.64;74.25
7930;BME280;4010;42.698;23.124;2024-02-04T00:19:10;118349.16;;;-140.64;73.91
7930;BME280;4010;42.698;23.124;2024-02-04T00:21:38;118349.16;;;-140.64;73.74
7930;BME280;4010;42.698;23.124;2024-02-04T00:24:05;118349.16;;;-140.64;74.08
7930;BME280;4010;42.698;23.124;2024-02-04T00:26:31;118349.16;;;-140.64;73.99
7930;BME280;4010;42.698;23.124;2024-02-04T00:28:58;118349.16;;;-140.64;74.09
7930;BME280;4010;42.698;23.124;2024-02-04T00:31:25;118349.16;;;-140.64;74.34
7930;BME280;4010;42.698;23.124;2024-02-04T00:33:52;118349.16;;;-140.64;74.32
7930;BME280;4010;42.698;23.124;2024-02-04T00:36:18;118349.16;;;-140.64;74.57
7930;BME280;4010;42.698;23.124;2024-02-04T00:38:48;118349.16;;;-140.64;74.84
7930;BME280;4010;42.698;23.124;2024-02-04T00:41:14;118349.16;;;-140.64;75.14
7930;BME280;4010;42.698;23.124;2024-02-04T00:43:41;118349.16;;;-140.64;75.27
7930;BME280;4010;42.698;23.124;2024-02-04T00:46:08;118349.16;;;-140.64;75.59
7930;BME280;4010;42.698;23.124;2024-02-04T00:48:35;118349.16;;;-140.64;75.61
7930;BME280;4010;42.698;23.124;2024-02-04T00:51:02;118349.16;;;-140.64;75.80
7930;BME280;4010;42.698;23.124;2024-02-04T00:53:29;118349.16;;;-140.64;76.26
7930;BME280;4010;42.698;23.124;2024-02-04T00:56:00;118349.16;;;-140.64;76.47
7930;BME280;4010;42.698;23.124;2024-02-04T00:58:27;118349.16;;;-140.64;76.93
7930;BME280;4010;42.698;23.124;2024-02-04T01:00:54;118349.16;;;-140.64;76.84
7930;BME280;4010;42.698;23.124;2024-02-04T01:03:20;118349.16;;;-140.64;76.94
7930;BME280;4010;42.698;23.124;2024-02-04T01:05:47;118349.16;;;-140.64;76.81
7930;BME280;4010;42.698;23.124;2024-02-04T01:08:14;118349.16;;;-140.64;76.98
7930;BME280;4010;42.698;23.124;2024-02-04T01:10:41;118349.16;;;-140.64;76.82
7930;BME280;4010;42.698;23.124;2024-02-04T01:13:09;118349.16;;;-140.64;76.92
7930;BME280;4010;42.698;23.124;2024-02-04T01:15:35;118349.16;;;-140.64;77.03
7930;BME280;4010;42.698;23.124;2024-02-04T01:18:02;118349.16;;;-140.64;76.26
7930;BME280;4010;42.698;23.124;2024-02-04T01:20:29;118349.16;;;-140.64;76.16
7930;BME280;4010;42.698;23.124;2024-02-04T01:22:56;118349.16;;;-140.64;76.19
7930;BME280;4010;42.698;23.124;2024-02-04T01:25:23;118349.16;;;-140.64;75.99
7930;BME280;4010;42.698;23.124;2024-02-04T01:27:49;118349.16;;;-140.64;75.64
7930;BME280;4010;42.698;23.124;2024-02-04T01:30:17;118349.16;;;-140.64;75.24
7930;BME280;4010;42.698;23.124;2024-02-04T01:32:44;118349.16;;;-140.64;75.33
7930;BME280;4010;42.698;23.124;2024-02-04T01:35:11;118349.16;;;-140.64;74.99
7930;BME280;4010;42.698;23.124;2024-02-04T01:37:40;118349.16;;;-140.64;75.59
7930;BME280;4010;42.698;23.124;2024-02-04T01:40:09;118349.16;;;-140.64;75.18
7930;BME280;4010;42.698;23.124;2024-02-04T01:42:36;118349.16;;;-140.64;75.04
7930;BME280;4010;42.698;23.124;2024-02-04T01:45:03;118349.16;;;-140.64;75.02
7930;BME280;4010;42.698;23.124;2024-02-04T01:47:32;118349.16;;;-140.64;74.94
7930;BME280;4010;42.698;23.124;2024-02-04T01:49:58;118349.16;;;-140.64;74.94
7930;BME280;4010;42.698;23.124;2024-02-04T01:52:26;118349.16;;;-140.64;74.61
7930;BME280;4010;42.698;23.124;2024-02-04T01:54:53;118349.16;;;-140.64;75.15
7930;BME280;4010;42.698;23.124;2024-02-04T01:57:20;118349.16;;;-140.64;74.83
7930;BME280;4010;42.698;23.124;2024-02-04T01:59:48;118349.16;;;-140.64;75.12
7930;BME280;4010;42.698;23.124;2024-02-04T02:02:17;118349.16;;;-140.64;74.79
7930;BME280;4010;42.698;23.124;2024-02-04T02:04:46;118349.16;;;-140.64;75.31
7930;BME280;4010;42.698;23.124;2024-02-04T02:07:13;118349.16;;;-140.64;74.73
7930;BME280;4010;42.698;23.124;2024-02-04T02:09:41;118349.16;;;-140.64;75.06
7930;BME280;4010;42.698;23.124;2024-02-04T02:12:11;118349.16;;;-140.64;74.99
7930;BME280;4010;42.698;23.124;2024-02-04T02:14:41;118349.16;;;-140.64;75.51
7930;BME280;4010;42.698;23.124;2024-02-04T02:17:12;118349.16;;;-140.64;75.59
7930;BME280;4010;42.698;23.124;2024-02-04T02:19:47;118349.16;;;-140.64;75.68
7930;BME280;4010;42.698;23.124;2024-02-04T02:22:25;118349.16;;;-140.64;75.54
7930;BME280;4010;42.698;23.124;2024-02-04T02:24:56;118349.16;;;-140.64;75.75
7930;BME280;4010;42.698;23.124;2024-02-04T02:27:24;118349.16;;;-140.64;75.66
7930;BME280;4010;42.698;23.124;2024-02-04T02:29:51;118349.16;;;-140.64;75.76
7930;BME280;4010;42.698;23.124;2024-02-04T02:32:17;118349.16;;;-140.64;76.00
7930;BME280;4010;42.698;23.124;2024-02-04T02:34:44;118349.16;;;-140.64;75.57
7930;BME280;4010;42.698;23.124;2024-02-04T02:37:20;118349.16;;;-140.64;76.01
7930;BME280;4010;42.698;23.124;2024-02-04T02:39:51;118349.16;;;-140.64;75.94
7930;BME280;4010;42.698;23.124;2024-02-04T02:42:23;118349.16;;;-140.64;76.05
7930;BME280;4010;42.698;23.124;2024-02-04T02:44:52;118349.16;;;-140.64;76.59
7930;BME280;4010;42.698;23.124;2024-02-04T02:47:21;118349.16;;;-140.64;76.28
7930;BME280;4010;42.698;23.124;2024-02-04T02:49:51;118349.16;;;-140.64;75.95
7930;BME280;4010;42.698;23.124;2024-02-04T02:52:18;118349.16;;;-140.64;76.23
7930;BME280;4010;42.698;23.124;2024-02-04T02:54:44;118349.16;;;-140.64;75.99
7930;BME280;4010;42.698;23.124;2024-02-04T02:57:11;118349.16;;;-140.64;76.05
7930;BME280;4010;42.698;23.124;2024-02-04T02:59:39;118349.16;;;-140.64;75.71
7930;BME280;4010;42.698;23.124;2024-02-04T03:02:06;118349.16;;;-140.64;75.51
7930;BME280;4010;42.698;23.124;2024-02-04T03:04:33;118349.16;;;-140.64;76.19
7930;BME280;4010;42.698;23.124;2024-02-04T03:06:59;118349.16;;;-140.64;76.07
7930;BME280;4010;42.698;23.124;2024-02-04T03:09:26;118349.16;;;-140.64;76.01
7930;BME280;4010;42.698;23.124;2024-02-04T03:11:53;118349.16;;;-140.64;76.26
7930;BME280;4010;42.698;23.124;2024-02-04T03:14:20;118349.16;;;-140.64;76.47
7930;BME280;4010;42.698;23.124;2024-02-04T03:16:48;118349.16;;;-140.64;76.50
7930;BME280;4010;42.698;23.124;2024-02-04T03:19:15;118349.16;;;-140.64;76.22
7930;BME280;4010;42.698;23.124;2024-02-04T03:21:41;118349.16;;;-140.64;75.85
7930;BME280;4010;42.698;23.124;2024-02-04T03:24:08;118349.16;;;-140.64;75.77
7930;BME280;4010;42.698;23.124;2024-02-04T03:26:35;118349.16;;;-140.64;75.56
7930;BME280;4010;42.698;23.124;2024-02-04T03:29:01;118349.16;;;-140.64;76.53
7930;BME280;4010;42.698;23.124;2024-02-04T03:31:31;118349.16;;;-140.64;76.16
7930;BME280;4010;42.698;23.124;2024-02-04T03:33:59;118349.16;;;-140.64;77.00
7930;BME280;4010;42.698;23.124;2024-02-04T03:36:25;118349.16;;;-140.64;77.39
7930;BME280;4010;42.698;23.124;2024-02-04T03:38:52;118349.16;;;-140.64;77.76
7930;BME280;4010;42.698;23.124;2024-02-04T03:41:19;118349.16;;;-140.64;77.23
7930;BME280;4010;42.698;23.124;2024-02-04T03:43:46;118349.16;;;-140.64;77.06
7930;BME280;4010;42.698;23.124;2024-02-04T03:46:13;118349.16;;;-140.64;76.86
7930;BME280;4010;42.698;23.124;2024-02-04T03:48:41;118349.16;;;-140.64;77.14
7930;BME280;4010;42.698;23.124;2024-02-04T03:51:14;118349.16;;;-140.64;76.38
7930;BME280;4010;42.698;23.124;2024-02-04T03:53:42;118349.16;;;-140.64;76.82
7930;BME280;4010;42.698;23.124;2024-02-04T03:56:09;118349.16;;;-140.64;76.88
7930;BME280;4010;42.698;23.124;2024-02-04T03:58:35;118349.16;;;-140.64;76.30
7930;BME280;4010;42.698;23.124;2024-02-04T04:01:02;118349.16;;;-140.64;75.99
7930;BME280;4010;42.698;23.124;2024-02-04T04:03:29;118349.16;;;-140.64;75.63
7930;BME280;4010;42.698;23.124;2024-02-04T04:05:56;118349.16;;;-140.64;74.73
7930;BME280;4010;42.698;23.124;2024-02-04T04:08:24;118349.16;;;-140.64;74.08
7930;BME280;4010;42.698;23.124;2024-02-04T04:10:50;118349.16;;;-140.64;74.12
7930;BME280;4010;42.698;23.124;2024-02-04T04:13:17;118349.16;;;-140.64;74.32
7930;BME280;4010;42.698;23.124;2024-02-04T04:15:44;118349.16;;;-140.64;74.80
7930;BME280;4010;42.698;23.124;2024-02-04T04:18:11;118349.16;;;-140.64;74.80
7930;BME280;4010;42.698;23.124;2024-02-04T04:20:38;118349.16;;;-140.64;74.59
7930;BME280;4010;42.698;23.124;2024-02-04T04:23:05;118349.16;;;-140.64;74.57
7930;BME280;4010;42.698;23.124;2024-02-04T04:25:33;118349.16;;;-140.64;74.63
7930;BME280;4010;42.698;23.124;2024-02-04T04:27:59;118349.16;;;-140.64;74.75
7930;BME280;4010;42.698;23.124;2024-02-04T04:30:26;118349.16;;;-140.64;74.43
7930;BME280;4010;42.698;23.124;2024-02-04T04:32:53;118349.16;;;-140.64;73.88
7930;BME280;4010;42.698;23.124;2024-02-04T04:35:19;118349.16;;;-140.64;74.06
7930;BME280;4010;42.698;23.124;2024-02-04T04:37:46;118349.16;;;-140.64;74.16
7930;BME280;4010;42.698;23.124;2024-02-04T04:40:13;118349.16;;;-140.64;73.56
7930;BME280;4010;42.698;23.124;2024-02-04T04:42:41;118349.16;;;-140.64;73.35
7930;BME280;4010;42.698;23.124;2024-02-04T04:45:08;118349.16;;;-140.64;73.74
7930;BME280;4010;42.698;23.124;2024-02-04T04:47:36;118349.16;;;-140.64;74.30
7930;BME280;4010;42.698;23.124;2024-02-04T04:50:02;118349.16;;;-140.64;74.99
7930;BME280;4010;42.698;23.124;2024-02-04T04:52:29;118349.16;;;-140.64;75.34
7930;BME280;4010;42.698;23.124;2024-02-04T04:54:55;118349.16;;;-140.64;75.44
7930;BME280;4010;42.698;23.124;2024-02-04T04:57:22;118349.16;;;-140.64;75.64
7930;BME280;4010;42.698;23.124;2024-02-04T04:59:50;118349.16;;;-140.64;74.84
7930;BME280;4010;42.698;23.124;2024-02-04T05:02:17;118349.16;;;-140.64;74.64
7930;BME280;4010;42.698;23.124;2024-02-04T05:04:44;118349.16;;;-140.64;74.29
7930;BME280;4010;42.698;23.124;2024-02-04T05:07:13;118349.16;;;-140.64;74.32
7930;BME280;4010;42.698;23.124;2024-02-04T05:09:39;118349.16;;;-140.64;73.75
7930;BME280;4010;42.698;23.124;2024-02-04T05:12:08;118349.16;;;-140.64;73.93
7930;BME280;4010;42.698;23.124;2024-02-04T05:14:35;118349.16;;;-140.64;74.46
7930;BME280;4010;42.698;23.124;2024-02-04T05:17:03;118349.16;;;-140.64;74.71
7930;BME280;4010;42.698;23.124;2024-02-04T05:19:30;118349.16;;;-140.64;74.42
7930;BME280;4010;42.698;23.124;2024-02-04T05:21:56;118349.16;;;-140.64;73.65
7930;BME280;4010;42.698;23.124;2024-02-04T05:24:23;118349.16;;;-140.64;73.46
7930;BME280;4010;42.698;23.124;2024-02-04T05:26:50;118349.16;;;-140.64;74.00
7930;BME280;4010;42.698;23.124;2024-02-04T05:29:17;118349.16;;;-140.64;73.80
7930;BME280;4010;42.698;23.124;2024-02-04T05:31:43;118349.16;;;-140.64;73.90
7930;BME280;4010;42.698;23.124;2024-02-04T05:34:12;118349.16;;;-140.64;74.50
7930;BME280;4010;42.698;23.124;2024-02-04T05:36:39;118349.16;;;-140.64;74.49
7930;BME280;4010;42.698;23.124;2024-02-04T05:39:10;118349.16;;;-140.64;74.62
7930;BME280;4010;42.698;23.124;2024-02-04T05:41:37;118349.16;;;-140.64;74.92
7930;BME280;4010;42.698;23.124;2024-02-04T05:44:04;118349.16;;;-140.64;75.31
7930;BME280;4010;42.698;23.124;2024-02-04T05:46:31;118349.16;;;-140.64;74.71
7930;BME280;4010;42.698;23.124;2024-02-04T05:48:58;118349.16;;;-140.64;74.87
7930;BME280;4010;42.698;23.124;2024-02-04T05:51:26;118349.16;;;-140.64;75.37
7930;BME280;4010;42.698;23.124;2024-02-04T05:53:53;118349.16;;;-140.64;74.67
7930;BME280;4010;42.698;23.124;2024-02-04T05:56:22;118349.16;;;-140.64;75.12
7930;BME280;4010;42.698;23.124;2024-02-04T05:58:49;118349.16;;;-140.64;75.15
7930;BME280;4010;42.698;23.124;2024-02-04T06:01:16;118349.16;;;-140.64;74.87
7930;BME280;4010;42.698;23.124;2024-02-04T06:03:43;118349.16;;;-140.64;75.12
7930;BME280;4010;42.698;23.124;2024-02-04T06:06:14;118349.16;;;-140.64;76.05
7930;BME280;4010;42.698;23.124;2024-02-04T06:08:42;118349.16;;;-140.64;75.61
7930;BME280;4010;42.698;23.124;2024-02-04T06:11:10;118349.16;;;-140.64;75.06
7930;BME280;4010;42.698;23.124;2024-02-04T06:13:37;118349.16;;;-140.64;75.30
7930;BME280;4010;42.698;23.124;2024-02-04T06:16:05;118349.16;;;-140.64;75.27
7930;BME280;4010;42.698;23.124;2024-02-04T06:18:32;118349.16;;;-140.64;75.64
7930;BME280;4010;42.698;23.124;2024-02-04T06:20:58;118349.16;;;-140.64;75.17
7930;BME280;4010;42.698;23.124;2024-02-04T06:23:25;118349.16;;;-140.64;74.92
7930;BME280;4010;42.698;23.124;2024-02-04T06:25:53;118349.16;;;-140.64;74.50
7930;BME280;4010;42.698;23.124;2024-02-04T06:28:20;118349.16;;;-140.64;73.65
7930;BME280;4010;42.698;23.124;2024-02-04T06:30:46;118349.16;;;-140.64;72.95
7930;BME280;4010;42.698;23.124;2024-02-04T06:33:13;118349.16;;;-140.64;72.71
7930;BME280;4010;42.698;23.124;2024-02-04T06:35:40;118349.16;;;-140.64;72.27
7930;BME280;4010;42.698;23.124;2024-02-04T06:38:07;118349.16;;;-140.64;71.55
7930;BME280;4010;42.698;23.124;2024-02-04T06:40:33;118349.16;;;-140.64;71.53
7930;BME280;4010;42.698;23.124;2024-02-04T06:43:01;118349.16;;;-140.64;71.76
7930;BME280;4010;42.698;23.124;2024-02-04T06:45:28;118349.16;;;-140.64;71.48
7930;BME280;4010;42.698;23.124;2024-02-04T06:47:55;118349.16;;;-140.64;71.24
7930;BME280;4010;42.698;23.124;2024-02-04T06:50:21;118349.16;;;-140.64;71.42
7930;BME280;4010;42.698;23.124;2024-02-04T06:52:48;118349.16;;;-140.64;70.88
7930;BME280;4010;42.698;23.124;2024-02-04T06:55:15;118349.16;;;-140.64;71.23
7930;BME280;4010;42.698;23.124;2024-02-04T06:57:41;118349.16;;;-140.64;72.05
7930;BME280;4010;42.698;23.124;2024-02-04T07:00:11;118349.16;;;-140.64;71.72
7930;BME280;4010;42.698;23.124;2024-02-04T07:02:38;118349.16;;;-140.64;72.31
7930;BME280;4010;42.698;23.124;2024-02-04T07:05:05;118349.16;;;-140.64;71.67
7930;BME280;4010;42.698;23.124;2024-02-04T07:07:32;118349.16;;;-140.64;71.44
7930;BME280;4010;42.698;23.124;2024-02-04T07:09:59;118349.16;;;-140.64;71.94
7930;BME280;4010;42.698;23.124;2024-02-04T07:12:26;118349.16;;;-140.64;71.89
7930;BME280;4010;42.698;23.124;2024-02-04T07:14:52;118349.16;;;-140.64;72.31
7930;BME280;4010;42.698;23.124;2024-02-04T07:17:21;118349.16;;;-140.64;71.79
7930;BME280;4010;42.698;23.124;2024-02-04T07:19:47;118349.16;;;-140.64;71.53
7930;BME280;4010;42.698;23.124;2024-02-04T07:22:14;118349.16;;;-140.64;70.95
7930;BME280;4010;42.698;23.124;2024-02-04T07:24:41;118349.16;;;-140.64;69.70
7930;BME280;4010;42.698;23.124;2024-02-04T07:27:07;118349.16;;;-140.64;70.30
7930;BME280;4010;42.698;23.124;2024-02-04T07:29:34;118349.16;;;-140.64;69.82
7930;BME280;4010;42.698;23.124;2024-02-04T07:32:01;118349.16;;;-140.64;69.28
7930;BME280;4010;42.698;23.124;2024-02-04T07:34:29;118349.16;;;-140.64;69.46
7930;BME280;4010;42.698;23.124;2024-02-04T07:36:56;118349.16;;;-140.64;69.28
7930;BME280;4010;42.698;23.124;2024-02-04T07:39:22;118349.16;;;-140.64;69.55
7930;BME280;4010;42.698;23.124;2024-02-04T07:41:49;118349.16;;;-140.64;70.39
7930;BME280;4010;42.698;23.124;2024-02-04T07:44:16;118349.16;;;-140.64;70.31
7930;BME280;4010;42.698;23.124;2024-02-04T07:46:43;118349.16;;;-140.64;70.50
7930;BME280;4010;42.698;23.124;2024-02-04T07:49:09;118349.16;;;-140.64;71.11
7930;BME280;4010;42.698;23.124;2024-02-04T07:51:37;118349.16;;;-140.64;70.58
7930;BME280;4010;42.698;23.124;2024-02-04T07:54:04;118349.16;;;-140.64;70.79
7930;BME280;4010;42.698;23.124;2024-02-04T07:56:31;118349.16;;;-140.64;70.30
7930;BME280;4010;42.698;23.124;2024-02-04T07:58:58;118349.16;;;-140.64;70.17
7930;BME280;4010;42.698;23.124;2024-02-04T08:01:24;118349.16;;;-140.64;69.49
7930;BME280;4010;42.698;23.124;2024-02-04T08:03:51;118349.16;;;-140.64;69.14
7930;BME280;4010;42.698;23.124;2024-02-04T08:06:18;118349.16;;;-140.64;68.21
7930;BME280;4010;42.698;23.124;2024-02-04T08:08:46;118349.16;;;-140.64;67.21
7930;BME280;4010;42.698;23.124;2024-02-04T08:11:16;118349.16;;;-140.64;66.60
7930;BME280;4010;42.698;23.124;2024-02-04T08:13:43;118349.16;;;-140.64;66.84
7930;BME280;4010;42.698;23.124;2024-02-04T08:16:09;118349.16;;;-140.64;64.58
7930;BME280;4010;42.698;23.124;2024-02-04T08:18:36;118349.16;;;-140.64;63.28
7930;BME280;4010;42.698;23.124;2024-02-04T08:21:04;118349.16;;;-140.64;62.23
7930;BME280;4010;42.698;23.124;2024-02-04T08:23:30;118349.16;;;-140.64;60.95
7930;BME280;4010;42.698;23.124;2024-02-04T08:25:59;118349.16;;;-140.64;59.94
7930;BME280;4010;42.698;23.124;2024-02-04T08:28:26;118349.16;;;-140.64;59.76
7930;BME280;4010;42.698;23.124;2024-02-04T08:30:52;118349.16;;;-140.64;60.11
7930;BME280;4010;42.698;23.124;2024-02-04T08:33:19;118349.16;;;-140.64;59.64
7930;BME280;4010;42.698;23.124;2024-02-04T08:35:46;118349.16;;;-140.64;57.70
7930;BME280;4010;42.698;23.124;2024-02-04T08:38:14;118349.16;;;-140.64;59.33
7930;BME280;4010;42.698;23.124;2024-02-04T08:40:41;118349.16;;;-140.64;59.11
7930;BME280;4010;42.698;23.124;2024-02-04T08:43:09;118349.16;;;-140.64;59.96
7930;BME280;4010;42.698;23.124;2024-02-04T08:45:36;118349.16;;;-140.64;59.50
7930;BME280;4010;42.698;23.124;2024-02-04T08:48:03;118349.16;;;-140.64;57.71
7930;BME280;4010;42.698;23.124;2024-02-04T08:50:30;118349.16;;;-140.64;58.91
7930;BME280;4010;42.698;23.124;2024-02-04T08:52:56;118349.16;;;-140.64;58.48
7930;BME280;4010;42.698;23.124;2024-02-04T08:55:23;118349.16;;;-140.64;57.53
7930;BME280;4010;42.698;23.124;2024-02-04T08:57:50;118349.16;;;-140.64;57.95
7930;BME280;4010;42.698;23.124;2024-02-04T09:00:20;118349.16;;;-140.64;58.42
7930;BME280;4010;42.698;23.124;2024-02-04T09:02:47;118349.16;;;-140.64;57.43
7930;BME280;4010;42.698;23.124;2024-02-04T09:05:14;118349.16;;;-140.64;55.67
7930;BME280;4010;42.698;23.124;2024-02-04T09:07:41;118349.16;;;-140.64;53.37
7930;BME280;4010;42.698;23.124;2024-02-04T09:10:08;118349.16;;;-140.64;51.90
7930;BME280;4010;42.698;23.124;2024-02-04T09:12:35;118349.16;;;-140.64;51.65
7930;BME280;4010;42.698;23.124;2024-02-04T09:15:02;118349.16;;;-140.64;51.75
7930;BME280;4010;42.698;23.124;2024-02-04T09:17:31;118349.16;;;-140.64;53.68
7930;BME280;4010;42.698;23.124;2024-02-04T09:19:58;118349.16;;;-140.64;53.77
7930;BME280;4010;42.698;23.124;2024-02-04T09:22:25;118349.16;;;-140.64;53.54
7930;BME280;4010;42.698;23.124;2024-02-04T09:24:52;118349.16;;;-140.64;53.23
7930;BME280;4010;42.698;23.124;2024-02-04T09:27:19;118349.16;;;-140.64;52.52
7930;BME280;4010;42.698;23.124;2024-02-04T09:29:45;118349.16;;;-140.64;51.06
7930;BME280;4010;42.698;23.124;2024-02-04T09:32:12;118349.16;;;-140.64;52.32
7930;BME280;4010;42.698;23.124;2024-02-04T09:34:40;118349.16;;;-140.64;51.76
7930;BME280;4010;42.698;23.124;2024-02-04T09:37:07;118349.16;;;-140.64;52.95
7930;BME280;4010;42.698;23.124;2024-02-04T09:39:34;118349.16;;;-140.64;53.21
7930;BME280;4010;42.698;23.124;2024-02-04T09:42:01;118349.16;;;-140.64;53.01
7930;BME280;4010;42.698;23.124;2024-02-04T09:44:28;118349.16;;;-140.64;52.60
7930;BME280;4010;42.698;23.124;2024-02-04T09:46:55;118349.16;;;-140.64;51.11
7930;BME280;4010;42.698;23.124;2024-02-04T09:49:24;118349.16;;;-140.64;50.03
7930;BME280;4010;42.698;23.124;2024-02-04T09:51:54;118349.16;;;-140.64;51.16
7930;BME280;4010;42.698;23.124;2024-02-04T09:54:22;118349.16;;;-140.64;50.36
7930;BME280;4010;42.698;23.124;2024-02-04T09:56:51;118349.16;;;-140.64;51.54
7930;BME280;4010;42.698;23.124;2024-02-04T09:59:18;118349.16;;;-140.64;53.61
7930;BME280;4010;42.698;23.124;2024-02-04T10:01:45;118349.16;;;-140.64;54.04
7930;BME280;4010;42.698;23.124;2024-02-04T10:04:12;118349.16;;;-140.64;53.32
7930;BME280;4010;42.698;23.124;2024-02-04T10:06:39;118349.16;;;-140.64;54.67
7930;BME280;4010;42.698;23.124;2024-02-04T10:09:07;118349.16;;;-140.64;54.22
7930;BME280;4010;42.698;23.124;2024-02-04T10:11:34;118349.16;;;-140.64;54.15
7930;BME280;4010;42.698;23.124;2024-02-04T10:14:01;118349.16;;;-140.64;53.85
7930;BME280;4010;42.698;23.124;2024-02-04T10:16:27;118349.16;;;-140.64;55.83
7930;BME280;4010;42.698;23.124;2024-02-04T10:18:55;118349.16;;;-140.64;56.48
7930;BME280;4010;42.698;23.124;2024-02-04T10:21:22;118349.16;;;-140.64;57.11
7930;BME280;4010;42.698;23.124;2024-02-04T10:23:50;118349.16;;;-140.64;58.81
7930;BME280;4010;42.698;23.124;2024-02-04T10:26:19;118349.16;;;-140.64;59.09
7930;BME280;4010;42.698;23.124;2024-02-04T10:28:47;118349.16;;;-140.64;58.26
7930;BME280;4010;42.698;23.124;2024-02-04T10:31:14;118349.16;;;-140.64;59.49
7930;BME280;4010;42.698;23.124;2024-02-04T10:33:40;118349.16;;;-140.64;59.65
7930;BME280;4010;42.698;23.124;2024-02-04T10:36:07;118349.16;;;-140.64;59.60
7930;BME280;4010;42.698;23.124;2024-02-04T10:38:34;118349.16;;;-140.64;60.28
7930;BME280;4010;42.698;23.124;2024-02-04T10:41:01;118349.16;;;-140.64;60.31
7930;BME280;4010;42.698;23.124;2024-02-04T10:43:31;118349.16;;;-140.64;60.23
7930;BME280;4010;42.698;23.124;2024-02-04T10:46:01;118349.16;;;-140.64;60.66
7930;BME280;4010;42.698;23.124;2024-02-04T10:48:34;118349.16;;;-140.64;61.18
7930;BME280;4010;42.698;23.124;2024-02-04T10:51:10;118349.16;;;-140.64;60.73
7930;BME280;4010;42.698;23.124;2024-02-04T10:53:41;118349.16;;;-140.64;61.05
7930;BME280;4010;42.698;23.124;2024-02-04T10:56:13;118349.16;;;-140.64;60.72
7930;BME280;4010;42.698;23.124;2024-02-04T10:58:43;118349.16;;;-140.64;59.93
7930;BME280;4010;42.698;23.124;2024-02-04T11:01:11;118349.16;;;-140.64;58.93
7930;BME280;4010;42.698;23.124;2024-02-04T11:03:39;118349.16;;;-140.64;57.95
7930;BME280;4010;42.698;23.124;2024-02-04T11:06:07;118349.16;;;-140.64;57.41
7930;BME280;4010;42.698;23.124;2024-02-04T11:08:34;118349.16;;;-140.64;57.39
7930;BME280;4010;42.698;23.124;2024-02-04T11:11:01;118349.16;;;-140.64;58.85
7930;BME280;4010;42.698;23.124;2024-02-04T11:13:28;118349.16;;;-140.64;57.86
7930;BME280;4010;42.698;23.124;2024-02-04T11:15:58;118349.16;;;-140.64;57.32
7930;BME280;4010;42.698;23.124;2024-02-04T11:18:55;118349.16;;;-140.64;55.68
7930;BME280;4010;42.698;23.124;2024-02-04T11:21:46;118349.16;;;-140.64;56.48
7930;BME280;4010;42.698;23.124;2024-02-04T11:24:30;118349.16;;;-140.64;57.89
7930;BME280;4010;42.698;23.124;2024-02-04T11:27:02;118349.16;;;-140.64;58.63
7930;BME280;4010;42.698;23.124;2024-02-04T11:29:29;118349.16;;;-140.64;58.66
7930;BME280;4010;42.698;23.124;2024-02-04T11:31:58;118349.16;;;-140.64;58.69
7930;BME280;4010;42.698;23.124;2024-02-04T11:34:24;118349.16;;;-140.64;58.45
7930;BME280;4010;42.698;23.124;2024-02-04T11:36:51;118349.16;;;-140.64;59.02
7930;BME280;4010;42.698;23.124;2024-02-04T11:39:18;118349.16;;;-140.64;58.39
7930;BME280;4010;42.698;23.124;2024-02-04T11:41:48;118349.16;;;-140.64;59.46
7930;BME280;4010;42.698;23.124;2024-02-04T11:44:20;118349.16;;;-140.64;58.44
7930;BME280;4010;42.698;23.124;2024-02-04T11:46:47;118349.16;;;-140.64;55.24
7930;BME280;4010;42.698;23.124;2024-02-04T11:49:18;118349.16;;;-140.64;53.26
7930;BME280;4010;42.698;23.124;2024-02-04T11:51:47;118349.16;;;-140.64;53.38
7930;BME280;4010;42.698;23.124;2024-02-04T11:54:15;118349.16;;;-140.64;52.66
7930;BME280;4010;42.698;23.124;2024-02-04T11:56:44;118349.16;;;-140.64;50.77
7930;BME280;4010;42.698;23.124;2024-02-04T11:59:11;118349.16;;;-140.64;51.11
7930;BME280;4010;42.698;23.124;2024-02-04T12:01:39;118349.16;;;-140.64;49.78
7930;BME280;4010;42.698;23.124;2024-02-04T12:04:10;118349.16;;;-140.64;50.81
7930;BME280;4010;42.698;23.124;2024-02-04T12:06:39;118349.16;;;-140.64;50.27
7930;BME280;4010;42.698;23.124;2024-02-04T12:09:07;118349.16;;;-140.64;50.86
7930;BME280;4010;42.698;23.124;2024-02-04T12:11:35;118349.16;;;-140.64;51.19
7930;BME280;4010;42.698;23.124;2024-02-04T12:14:03;118349.16;;;-140.64;53.05
7930;BME280;4010;42.698;23.124;2024-02-04T12:16:31;118349.16;;;-140.64;53.66
7930;BME280;4010;42.698;23.124;2024-02-04T12:18:59;118349.16;;;-140.64;53.26
7930;BME280;4010;42.698;23.124;2024-02-04T12:21:26;118349.16;;;-140.64;53.23
7930;BME280;4010;42.698;23.124;2024-02-04T12:23:54;118349.16;;;-140.64;53.44
7930;BME280;4010;42.698;23.124;2024-02-04T12:26:22;118349.16;;;-140.64;54.39
7930;BME280;4010;42.698;23.124;2024-02-04T12:28:49;118349.16;;;-140.64;54.94
7930;BME280;4010;42.698;23.124;2024-02-04T12:31:17;118349.16;;;-140.64;54.45
7930;BME280;4010;42.698;23.124;2024-02-04T12:33:52;118349.16;;;-140.64;54.96
7930;BME280;4010;42.698;23.124;2024-02-04T12:36:20;118349.16;;;-140.64;53.88
7930;BME280;4010;42.698;23.124;2024-02-04T12:38:51;118349.16;;;-140.64;53.48
7930;BME280;4010;42.698;23.124;2024-02-04T12:41:20;118349.16;;;-140.64;52.43
7930;BME280;4010;42.698;23.124;2024-02-04T12:43:52;118349.16;;;-140.64;53.31